createdAt,value
2018-11-13T00:03:02.808Z,99791.14
2018-11-13T00:07:56.280Z,99787.70
2018-11-13T00:12:55.931Z,99787.97
2018-11-13T00:17:49.313Z,99792.98
2018-11-13T00:22:43.286Z,99791.14
2018-11-13T00:27:36.851Z,99791.14
2018-11-13T00:32:30.184Z,99792.67
2018-11-13T00:37:23.655Z,99793.02
2018-11-13T00:42:17.150Z,99789.63
2018-11-13T00:47:10.479Z,99788.88
2018-11-13T00:52:03.999Z,99788.33
2018-11-13T00:56:57.478Z,99792.30
2018-11-13T01:01:50.871Z,99784.67
2018-11-13T01:06:44.395Z,99787.84
2018-11-13T01:11:37.838Z,99791.59
2018-11-13T01:16:31.243Z,99792.17
2018-11-13T01:21:24.636Z,99787.81
2018-11-13T01:26:18.040Z,99791.09
2018-11-13T01:31:11.564Z,99792.30
2018-11-13T01:36:04.988Z,99798.27
2018-11-13T01:40:58.515Z,99802.14
2018-11-13T01:45:52.034Z,99797.42
2018-11-13T01:50:45.442Z,99800.28
2018-11-13T01:55:39.137Z,99812.60
2018-11-13T02:00:32.531Z,99810.80
2018-11-13T02:05:26.338Z,99810.83
2018-11-13T02:10:20.113Z,99812.92
2018-11-13T02:15:13.655Z,99812.17
2018-11-13T02:20:10.302Z,99816.41
2018-11-13T02:25:03.800Z,99812.34
2018-11-13T02:29:57.274Z,99818.20
2018-11-13T02:34:50.686Z,99819.97
2018-11-13T02:39:44.053Z,99815.34
2018-11-13T02:44:37.462Z,99815.61
2018-11-13T02:49:30.940Z,99813.87
2018-11-13T02:54:24.331Z,99818.72
2018-11-13T02:59:17.837Z,99824.91
2018-11-13T03:04:11.331Z,99824.51
2018-11-13T03:09:07.058Z,99817.27
2018-11-13T03:14:00.530Z,99817.52
2018-11-13T03:18:53.907Z,99817.81
2018-11-13T03:23:47.397Z,99817.56
2018-11-13T03:28:40.880Z,99819.80
2018-11-13T03:33:34.323Z,99815.64
2018-11-13T03:38:27.759Z,99823.39
2018-11-13T03:43:21.156Z,99817.36
2018-11-13T03:48:14.604Z,99825.14
2018-11-13T03:53:08.002Z,99821.22
2018-11-13T03:58:01.547Z,99814.77
2018-11-13T04:02:55.004Z,99817.78
2018-11-13T04:07:51.484Z,99824.19
2018-11-13T04:12:45.204Z,99825.63
2018-11-13T04:17:39.106Z,99825.09
2018-11-13T04:22:32.507Z,99827.56
2018-11-13T04:27:25.926Z,99834.55
2018-11-13T04:32:19.614Z,99836.30
2018-11-13T04:37:13.098Z,99835.66
2018-11-13T04:42:07.114Z,99840.89
2018-11-13T04:47:00.543Z,99843.13
2018-11-13T04:51:53.911Z,99838.80
2018-11-13T04:56:47.326Z,99843.23
2018-11-13T05:01:40.742Z,99855.70
2018-11-13T05:06:34.221Z,99858.24
2018-11-13T05:11:27.618Z,99863.44
2018-11-13T05:16:21.010Z,99862.63
2018-11-13T05:21:14.586Z,99872.63
2018-11-13T05:26:07.989Z,99874.97
2018-11-13T05:31:01.389Z,99881.08
2018-11-13T05:35:55.765Z,99883.02
2018-11-13T05:40:49.357Z,99875.88
2018-11-13T05:45:42.725Z,99879.81
2018-11-13T05:50:36.246Z,99882.48
2018-11-13T05:55:29.646Z,99885.47
2018-11-13T06:00:28.388Z,99889.63
2018-11-13T06:05:21.930Z,99891.20
2018-11-13T06:10:15.307Z,99898.40
2018-11-13T06:15:09.376Z,99897.27
2018-11-13T06:20:03.346Z,99895.77
2018-11-13T06:24:56.758Z,99900.10
2018-11-13T06:29:50.451Z,99901.23
2018-11-13T06:34:44.168Z,99900.77
2018-11-13T06:39:37.661Z,99897.83
2018-11-13T06:44:31.195Z,99899.60
2018-11-13T06:49:25.094Z,99906.48
2018-11-13T06:54:29.478Z,99906.23
2018-11-13T06:59:23.011Z,99910.91
2018-11-13T07:04:17.487Z,99912.00
2018-11-13T07:09:11.115Z,99908.33
2018-11-13T07:14:04.636Z,99903.70
2018-11-13T07:18:58.092Z,99906.22
2018-11-13T07:23:51.580Z,99901.63
2018-11-13T07:28:45.143Z,99902.75
2018-11-13T07:33:38.464Z,99895.44
2018-11-13T07:38:31.884Z,99902.03
2018-11-13T07:43:25.295Z,99899.14
2018-11-13T07:48:18.731Z,99890.58
2018-11-13T07:53:12.192Z,99889.31
2018-11-13T07:58:05.737Z,99897.99
2018-11-13T08:03:09.014Z,99900.58
2018-11-13T08:08:02.527Z,99897.69
2018-11-13T08:12:55.996Z,99903.91
2018-11-13T08:17:49.354Z,99897.14
2018-11-13T08:22:43.451Z,99895.20
2018-11-13T08:27:37.764Z,99900.31
2018-11-13T08:32:31.432Z,99900.20
2018-11-13T08:37:24.972Z,99895.66
2018-11-13T08:42:18.502Z,99899.30
2018-11-13T08:47:12.099Z,99897.61
2018-11-13T08:52:06.100Z,99890.71
2018-11-13T08:56:59.501Z,99888.55
2018-11-13T09:01:53.077Z,99883.66
2018-11-13T09:06:46.797Z,99878.20
2018-11-13T09:11:40.486Z,99875.70
2018-11-13T09:16:34.075Z,99874.80
2018-11-13T09:21:27.481Z,99876.29
2018-11-13T09:26:20.959Z,99874.43
2018-11-13T09:31:14.539Z,99877.67
2018-11-13T09:36:07.988Z,99880.33
2018-11-13T09:41:01.585Z,99874.33
2018-11-13T09:45:55.139Z,99871.73
2018-11-13T09:50:48.800Z,99874.42
2018-11-13T09:55:42.428Z,99874.32
2018-11-13T10:00:36.239Z,99869.17
2018-11-13T10:05:29.851Z,99870.94
2018-11-13T10:10:23.680Z,99870.34
2018-11-13T10:15:21.806Z,99871.34
2018-11-13T10:20:15.995Z,99858.88
2018-11-13T10:25:10.417Z,99853.80
2018-11-13T10:30:05.815Z,99859.84
2018-11-13T10:34:59.350Z,99859.27
2018-11-13T10:39:53.033Z,99866.18
2018-11-13T10:44:46.477Z,99864.26
2018-11-13T10:49:40.216Z,99862.17
2018-11-13T10:54:33.727Z,99857.05
2018-11-13T10:59:27.163Z,99851.88
2018-11-13T11:04:26.191Z,99845.90
2018-11-13T11:09:19.888Z,99840.31
2018-11-13T11:14:13.339Z,99838.34
2018-11-13T11:19:06.915Z,99837.70
2018-11-13T11:24:00.517Z,99836.84
2018-11-13T11:28:54.125Z,99833.37
2018-11-13T11:33:47.449Z,99832.15
2018-11-13T11:38:40.792Z,99830.46
2018-11-13T11:43:34.216Z,99826.16
2018-11-13T11:48:27.643Z,99820.09
2018-11-13T11:53:21.149Z,99821.72
2018-11-13T11:58:14.828Z,99818.21
2018-11-13T12:03:08.695Z,99817.63
2018-11-13T12:08:02.213Z,99813.56
2018-11-13T12:12:55.906Z,99814.25
2018-11-13T12:17:49.599Z,99808.32
2018-11-13T12:22:43.405Z,99809.52
2018-11-13T12:27:37.076Z,99803.55
2018-11-13T12:32:30.939Z,99800.73
2018-11-13T12:37:24.625Z,99803.31
2018-11-13T12:42:18.094Z,99798.33
2018-11-13T12:47:12.006Z,99800.11
2018-11-13T12:52:11.167Z,99805.14
2018-11-13T12:57:04.643Z,99795.06
2018-11-13T13:01:58.089Z,99791.88
2018-11-13T13:06:51.715Z,99792.89
2018-11-13T13:11:45.222Z,99800.19
2018-11-13T13:16:39.040Z,99798.86
2018-11-13T13:21:32.579Z,99801.16
2018-11-13T13:26:26.109Z,99793.61
2018-11-13T13:31:19.542Z,99789.75
2018-11-13T13:36:12.991Z,99782.02
2018-11-13T13:41:07.054Z,99780.75
2018-11-13T13:46:00.648Z,99778.48
2018-11-13T13:50:54.265Z,99776.68
2018-11-13T13:55:48.179Z,99772.16
2018-11-13T14:00:41.694Z,99773.61
2018-11-13T14:05:35.460Z,99773.31
2018-11-13T14:10:29.039Z,99775.75
2018-11-13T14:15:22.719Z,99775.44
2018-11-13T14:20:17.652Z,99775.20
2018-11-13T14:25:12.344Z,99771.34
2018-11-13T14:30:12.569Z,99766.64
2018-11-13T14:35:06.676Z,99765.31
2018-11-13T14:40:00.237Z,99764.08
2018-11-13T14:44:59.622Z,99757.44
2018-11-13T14:49:53.123Z,99758.48
2018-11-13T14:54:46.847Z,99755.92
2018-11-13T14:59:40.550Z,99760.97
2018-11-13T15:04:34.106Z,99767.24
2018-11-13T15:09:27.692Z,99766.45
2018-11-13T15:14:21.138Z,99772.43
2018-11-13T15:19:14.559Z,99769.94
2018-11-13T15:24:09.179Z,99777.23
2018-11-13T15:29:02.653Z,99782.11
2018-11-13T15:33:56.107Z,99787.36
2018-11-13T15:38:49.571Z,99788.41
2018-11-13T15:43:42.957Z,99792.22
2018-11-13T15:48:36.623Z,99794.89
2018-11-13T15:53:30.048Z,99797.88
2018-11-13T15:58:23.593Z,99804.88
2018-11-13T16:03:20.902Z,99811.74
2018-11-13T16:08:14.375Z,99816.80
2018-11-13T16:13:08.275Z,99821.08
2018-11-13T16:18:03.185Z,99819.19
2018-11-13T16:22:56.805Z,99819.78
2018-11-13T16:27:50.338Z,99810.29
2018-11-13T16:32:44.762Z,99816.34
2018-11-13T16:37:39.073Z,99813.15
2018-11-13T16:42:32.551Z,99814.64
2018-11-13T16:47:25.982Z,99815.36
2018-11-13T16:52:19.463Z,99814.09
2018-11-13T16:57:15.207Z,99810.44
2018-11-13T17:02:08.849Z,99809.53
2018-11-13T17:07:02.788Z,99810.52
2018-11-13T17:11:56.663Z,99805.23
2018-11-13T17:16:50.208Z,99811.20
2018-11-13T17:21:43.702Z,99810.66
2018-11-13T17:26:37.239Z,99805.59
2018-11-13T17:31:34.526Z,99811.11
2018-11-13T17:36:27.884Z,99809.13
2018-11-13T17:41:21.415Z,99809.62
2018-11-13T17:46:15.577Z,99809.06
2018-11-13T17:51:09.094Z,99807.18
2018-11-13T17:56:02.614Z,99803.97
2018-11-13T18:00:56.523Z,99801.84
2018-11-13T18:05:50.099Z,99795.97
2018-11-13T18:10:44.905Z,99788.42
2018-11-13T18:15:38.643Z,99791.09
2018-11-13T18:20:34.568Z,99781.47
2018-11-13T18:25:28.412Z,99776.50
2018-11-13T18:30:28.325Z,99775.95
2018-11-13T18:35:23.119Z,99781.97
2018-11-13T18:40:17.563Z,99781.02
2018-11-13T18:45:14.460Z,99778.08
2018-11-13T18:50:12.216Z,99770.13
2018-11-13T18:55:06.605Z,99773.42
2018-11-13T19:00:00.222Z,99770.94
2018-11-13T19:04:53.790Z,99759.97
2018-11-13T19:09:47.534Z,99767.09
2018-11-13T19:14:41.100Z,99764.16
2018-11-13T19:19:34.780Z,99760.69
2018-11-13T19:24:28.485Z,99763.02
2018-11-13T19:29:22.024Z,99754.12
2018-11-13T19:34:15.436Z,99765.47
2018-11-13T19:39:10.815Z,99751.75
2018-11-13T19:44:04.635Z,99769.97
2018-11-13T19:48:58.537Z,99762.30
2018-11-13T19:53:52.380Z,99758.59
2018-11-13T19:58:45.971Z,99762.54
2018-11-13T20:03:39.477Z,99765.62
2018-11-13T20:08:32.889Z,99754.88
2018-11-13T20:13:26.355Z,99742.77
2018-11-13T20:18:20.088Z,99730.24
2018-11-13T20:23:13.713Z,99724.50
2018-11-13T20:28:07.497Z,99724.20
2018-11-13T20:33:01.081Z,99723.34
2018-11-13T20:37:55.451Z,99718.84
2018-11-13T20:42:50.251Z,99714.60
2018-11-13T20:47:43.736Z,99718.98
2018-11-13T20:52:37.476Z,99725.80
2018-11-13T20:57:31.043Z,99723.89
2018-11-13T21:02:24.525Z,99719.77
2018-11-13T21:07:18.155Z,99720.20
2018-11-13T21:12:11.514Z,99716.26
2018-11-13T21:17:05.521Z,99712.25
2018-11-13T21:21:58.644Z,99707.23
2018-11-13T21:26:52.279Z,99707.57
2018-11-13T21:31:47.232Z,99697.22
2018-11-13T21:36:43.515Z,99706.88
2018-11-13T21:41:38.335Z,99699.30
2018-11-13T21:46:31.803Z,99705.82
2018-11-13T21:51:25.421Z,99701.42
2018-11-13T21:56:18.994Z,99697.22
2018-11-13T22:01:14.665Z,99689.33
2018-11-13T22:06:08.112Z,99683.30
2018-11-13T22:11:01.891Z,99664.84
2018-11-13T22:15:55.432Z,99667.27
2018-11-13T22:20:48.894Z,99653.91
2018-11-13T22:25:42.290Z,99638.05
2018-11-13T22:30:35.651Z,99640.44
2018-11-13T22:35:29.154Z,99630.17
2018-11-13T22:40:23.853Z,99625.82
2018-11-13T22:45:18.861Z,99620.95
2018-11-13T22:50:21.762Z,99615.59
2018-11-13T22:55:15.673Z,99617.52
2018-11-13T23:00:16.592Z,99622.42
2018-11-13T23:05:09.587Z,99619.49
2018-11-13T23:10:03.071Z,99622.05
2018-11-13T23:14:56.433Z,99616.33
2018-11-13T23:19:49.937Z,99613.17
2018-11-13T23:24:43.569Z,99618.55
2018-11-13T23:29:37.058Z,99608.25
2018-11-13T23:34:30.514Z,99611.14
2018-11-13T23:39:23.924Z,99603.69
2018-11-13T23:44:17.382Z,99601.20
2018-11-13T23:49:11.832Z,99591.14
2018-11-13T23:54:05.745Z,99592.67
2018-11-13T23:58:59.347Z,99590.43
